createdAt,value
2019-01-21T00:01:20.465Z,926.37
2019-01-21T00:02:52.281Z,926.34
2019-01-21T00:04:24.097Z,926.35
2019-01-21T00:05:55.913Z,926.35
2019-01-21T00:07:28.086Z,926.38
2019-01-21T00:08:59.552Z,926.41
2019-01-21T00:10:31.384Z,926.55
2019-01-21T00:12:03.177Z,926.64
2019-01-21T00:13:34.996Z,926.67
2019-01-21T00:15:06.809Z,926.71
2019-01-21T00:16:38.726Z,926.76
2019-01-21T00:18:10.442Z,926.75
2019-01-21T00:19:42.258Z,926.81
2019-01-21T00:21:14.074Z,926.83
2019-01-21T00:22:45.891Z,926.91
2019-01-21T00:24:17.709Z,927.04
2019-01-21T00:25:49.526Z,927.09
2019-01-21T00:27:21.366Z,927.12
2019-01-21T00:28:53.156Z,927.18
2019-01-21T00:30:24.973Z,927.24
2019-01-21T00:31:56.789Z,927.29
2019-01-21T00:33:28.605Z,927.35
2019-01-21T00:35:00.522Z,927.38
2019-01-21T00:36:32.238Z,927.38
2019-01-21T00:38:04.055Z,927.40
2019-01-21T00:39:37.241Z,927.39
2019-01-21T00:41:07.689Z,927.46
2019-01-21T00:42:39.503Z,927.40
2019-01-21T00:44:11.320Z,927.39
2019-01-21T00:45:43.135Z,927.39
2019-01-21T00:47:14.951Z,927.36
2019-01-21T00:48:46.770Z,927.37
2019-01-21T00:50:18.584Z,927.36
2019-01-21T00:51:50.400Z,927.38
2019-01-21T00:53:22.315Z,927.40
2019-01-21T00:54:54.032Z,927.36
2019-01-21T00:56:25.848Z,927.36
2019-01-21T00:57:57.666Z,927.36
2019-01-21T00:59:29.482Z,927.38
2019-01-21T01:01:01.302Z,927.39
2019-01-21T01:02:33.113Z,927.44
2019-01-21T01:04:04.929Z,927.47
2019-01-21T01:05:36.746Z,927.46
2019-01-21T01:07:08.562Z,927.47
2019-01-21T01:08:40.378Z,927.48
2019-01-21T01:10:12.194Z,927.47
2019-01-21T01:11:44.111Z,927.56
2019-01-21T01:13:15.827Z,927.54
2019-01-21T01:14:47.644Z,927.54
2019-01-21T01:16:19.459Z,927.48
2019-01-21T01:17:51.276Z,927.47
2019-01-21T01:19:23.094Z,927.45
2019-01-21T01:20:54.908Z,927.40
2019-01-21T01:22:26.734Z,927.43
2019-01-21T01:23:58.541Z,927.45
2019-01-21T01:25:30.357Z,927.56
2019-01-21T01:27:02.175Z,927.56
2019-01-21T01:28:33.990Z,927.61
2019-01-21T01:30:05.906Z,927.62
2019-01-21T01:31:37.621Z,927.64
2019-01-21T01:33:09.437Z,927.60
2019-01-21T01:34:41.253Z,927.58
2019-01-21T01:36:13.070Z,927.57
2019-01-21T01:37:44.898Z,927.51
2019-01-21T01:39:16.702Z,927.52
2019-01-21T01:40:48.520Z,927.47
2019-01-21T01:42:20.334Z,927.45
2019-01-21T01:43:52.150Z,927.45
2019-01-21T01:45:23.978Z,927.38
2019-01-21T01:46:55.781Z,927.37
2019-01-21T01:48:27.698Z,927.29
2019-01-21T01:49:59.414Z,927.21
2019-01-21T01:51:31.230Z,927.13
2019-01-21T01:53:03.045Z,927.11
2019-01-21T01:54:34.876Z,927.04
2019-01-21T01:56:06.677Z,927.09
2019-01-21T01:57:38.493Z,927.03
2019-01-21T01:59:10.312Z,927.00
2019-01-21T02:00:42.126Z,927.05
2019-01-21T02:02:13.955Z,927.06
2019-01-21T02:03:45.755Z,927.07
2019-01-21T02:05:17.571Z,927.05
2019-01-21T02:06:49.487Z,927.02
2019-01-21T02:08:21.202Z,927.06
2019-01-21T02:09:53.018Z,927.05
2019-01-21T02:11:24.833Z,927.02
2019-01-21T02:12:56.649Z,927.01
2019-01-21T02:14:28.464Z,926.98
2019-01-21T02:16:00.280Z,926.89
2019-01-21T02:17:32.097Z,926.92
2019-01-21T02:19:03.915Z,926.91
2019-01-21T02:20:35.727Z,926.90
2019-01-21T02:22:07.544Z,926.84
2019-01-21T02:23:39.358Z,926.78
2019-01-21T02:25:11.278Z,926.78
2019-01-21T02:26:42.990Z,926.79
2019-01-21T02:28:14.806Z,926.80
2019-01-21T02:29:46.621Z,926.88
2019-01-21T02:31:18.437Z,926.88
2019-01-21T02:32:50.255Z,926.94
2019-01-21T02:34:22.068Z,926.99
2019-01-21T02:35:53.885Z,926.99
2019-01-21T02:37:25.703Z,927.01
2019-01-21T02:38:57.515Z,927.14
2019-01-21T02:40:29.330Z,927.18
2019-01-21T02:42:01.147Z,927.23
2019-01-21T02:43:33.062Z,927.21
2019-01-21T02:45:04.778Z,927.19
2019-01-21T02:46:36.595Z,927.16
2019-01-21T02:48:08.413Z,927.08
2019-01-21T02:49:40.486Z,927.11
2019-01-21T02:51:12.041Z,927.15
2019-01-21T02:52:43.857Z,927.14
2019-01-21T02:54:15.673Z,927.17
2019-01-21T02:55:47.496Z,927.12
2019-01-21T02:57:19.305Z,927.08
2019-01-21T02:58:51.122Z,927.02
2019-01-21T03:00:22.937Z,927.01
2019-01-21T03:01:54.855Z,926.91
2019-01-21T03:03:26.571Z,926.84
2019-01-21T03:04:58.385Z,926.85
2019-01-21T03:06:30.201Z,926.88
2019-01-21T03:08:02.018Z,926.91
2019-01-21T03:09:33.835Z,926.97
2019-01-21T03:11:05.649Z,927.01
2019-01-21T03:12:37.465Z,927.06
2019-01-21T03:14:09.280Z,927.10
2019-01-21T03:15:41.098Z,927.08
2019-01-21T03:17:12.912Z,927.08
2019-01-21T03:18:44.729Z,927.03
2019-01-21T03:20:16.946Z,926.96
2019-01-21T03:21:48.362Z,926.95
2019-01-21T03:23:20.177Z,926.93
2019-01-21T03:24:51.995Z,926.90
2019-01-21T03:26:23.810Z,926.85
2019-01-21T03:27:55.625Z,926.83
2019-01-21T03:29:27.450Z,926.81
2019-01-21T03:30:59.259Z,926.78
2019-01-21T03:32:31.076Z,926.74
2019-01-21T03:34:02.892Z,926.71
2019-01-21T03:35:34.710Z,926.66
2019-01-21T03:37:06.523Z,926.65
2019-01-21T03:38:38.592Z,926.61
2019-01-21T03:40:10.155Z,926.62
2019-01-21T03:41:41.973Z,926.62
2019-01-21T03:43:13.855Z,926.57
2019-01-21T03:44:45.606Z,926.62
2019-01-21T03:46:17.420Z,926.59
2019-01-21T03:47:49.438Z,926.65
2019-01-21T03:49:21.051Z,926.62
2019-01-21T03:50:53.123Z,926.55
2019-01-21T03:52:24.683Z,926.48
2019-01-21T03:53:56.501Z,926.40
2019-01-21T03:55:28.315Z,926.30
2019-01-21T03:57:00.231Z,926.17
2019-01-21T03:58:31.947Z,926.11
2019-01-21T04:00:03.762Z,926.04
2019-01-21T04:01:35.579Z,926.03
2019-01-21T04:03:07.395Z,926.08
2019-01-21T04:04:39.211Z,926.06
2019-01-21T04:06:11.027Z,926.06
2019-01-21T04:07:42.842Z,926.06
2019-01-21T04:09:14.658Z,926.01
2019-01-21T04:10:46.474Z,925.98
2019-01-21T04:12:18.289Z,925.94
2019-01-21T04:13:50.106Z,925.90
2019-01-21T04:15:22.020Z,925.88
2019-01-21T04:16:53.736Z,925.77
2019-01-21T04:18:25.550Z,925.83
2019-01-21T04:19:57.366Z,925.89
2019-01-21T04:21:29.438Z,925.99
2019-01-21T04:23:00.997Z,925.96
2019-01-21T04:24:32.812Z,926.01
2019-01-21T04:26:04.629Z,926.01
2019-01-21T04:27:36.443Z,925.95
2019-01-21T04:29:08.258Z,926.04
2019-01-21T04:30:40.075Z,926.01
2019-01-21T04:32:11.893Z,925.95
2019-01-21T04:33:43.806Z,925.96
2019-01-21T04:35:15.523Z,925.94
2019-01-21T04:36:47.338Z,925.98
2019-01-21T04:38:19.154Z,925.97
2019-01-21T04:39:50.975Z,925.95
2019-01-21T04:41:22.786Z,925.94
2019-01-21T04:42:54.601Z,925.94
2019-01-21T04:44:26.461Z,925.89
2019-01-21T04:45:58.231Z,925.86
2019-01-21T04:47:30.046Z,925.84
2019-01-21T04:49:01.862Z,925.80
2019-01-21T04:50:33.679Z,925.79
2019-01-21T04:52:06.746Z,925.78
2019-01-21T04:53:37.309Z,925.72
2019-01-21T04:55:09.126Z,925.74
2019-01-21T04:56:40.941Z,925.75
2019-01-21T04:58:12.756Z,925.73
2019-01-21T04:59:44.580Z,925.68
2019-01-21T05:01:16.387Z,925.69
2019-01-21T05:02:48.204Z,925.66
2019-01-21T05:04:20.019Z,925.66
2019-01-21T05:05:51.835Z,925.61
2019-01-21T05:07:23.650Z,925.62
2019-01-21T05:08:55.465Z,925.68
2019-01-21T05:10:27.382Z,925.69
2019-01-21T05:11:59.102Z,925.65
2019-01-21T05:13:30.912Z,925.65
2019-01-21T05:15:02.730Z,925.62
2019-01-21T05:16:34.550Z,925.58
2019-01-21T05:18:06.360Z,925.51
2019-01-21T05:19:38.174Z,925.46
2019-01-21T05:21:09.990Z,925.46
2019-01-21T05:22:42.057Z,925.47
2019-01-21T05:24:13.622Z,925.46
2019-01-21T05:25:45.437Z,925.43
2019-01-21T05:27:17.257Z,925.39
2019-01-21T05:28:49.171Z,925.38
2019-01-21T05:30:20.886Z,925.33
2019-01-21T05:31:52.701Z,925.34
2019-01-21T05:33:24.517Z,925.32
2019-01-21T05:34:56.332Z,925.29
2019-01-21T05:36:28.148Z,925.32
2019-01-21T05:37:59.966Z,925.33
2019-01-21T05:39:31.783Z,925.27
2019-01-21T05:41:03.596Z,925.26
2019-01-21T05:42:35.412Z,925.23
2019-01-21T05:44:07.228Z,925.20
2019-01-21T05:45:39.045Z,925.18
2019-01-21T05:47:10.961Z,925.20
2019-01-21T05:48:48.881Z,925.20
2019-01-21T05:50:14.494Z,925.20
2019-01-21T05:51:46.311Z,925.15
2019-01-21T05:53:18.124Z,925.09
2019-01-21T05:54:49.947Z,925.15
2019-01-21T05:56:21.755Z,925.13
2019-01-21T05:57:53.571Z,925.09
2019-01-21T05:59:25.388Z,925.11
2019-01-21T06:00:57.203Z,925.12
2019-01-21T06:02:29.019Z,925.11
2019-01-21T06:04:00.835Z,925.06
2019-01-21T06:05:32.753Z,925.05
2019-01-21T06:07:04.466Z,925.07
2019-01-21T06:08:36.283Z,925.07
2019-01-21T06:10:08.098Z,925.05
2019-01-21T06:11:39.918Z,925.04
2019-01-21T06:13:11.730Z,925.03
2019-01-21T06:14:43.546Z,925.03
2019-01-21T06:16:15.362Z,925.03
2019-01-21T06:17:47.179Z,924.99
2019-01-21T06:19:18.994Z,925.01
2019-01-21T06:20:50.812Z,924.95
2019-01-21T06:22:22.645Z,924.93
2019-01-21T06:23:54.793Z,924.92
2019-01-21T06:25:26.260Z,924.95
2019-01-21T06:26:58.072Z,924.96
2019-01-21T06:28:29.893Z,924.91
2019-01-21T06:30:01.706Z,924.92
2019-01-21T06:31:33.520Z,924.91
2019-01-21T06:33:05.335Z,924.91
2019-01-21T06:34:37.151Z,924.93
2019-01-21T06:36:08.969Z,924.94
2019-01-21T06:37:40.782Z,924.90
2019-01-21T06:39:12.598Z,924.89
2019-01-21T06:40:44.414Z,924.91
2019-01-21T06:42:16.329Z,924.88
2019-01-21T06:45:19.860Z,924.86
2019-01-21T06:46:51.676Z,924.86
2019-01-21T06:48:23.491Z,924.91
2019-01-21T06:49:55.307Z,924.86
2019-01-21T06:51:27.123Z,924.82
2019-01-21T06:52:58.942Z,924.81
2019-01-21T06:54:31.006Z,924.78
2019-01-21T06:56:02.571Z,924.77
2019-01-21T06:57:34.383Z,924.78
2019-01-21T06:59:06.198Z,924.78
2019-01-21T07:00:38.115Z,924.80
2019-01-21T07:02:09.829Z,924.78
2019-01-21T07:03:41.648Z,924.77
2019-01-21T07:05:13.461Z,924.73
2019-01-21T07:06:45.283Z,924.69
2019-01-21T07:08:17.090Z,924.66
2019-01-21T07:11:20.721Z,924.65
2019-01-21T07:12:52.535Z,924.67
2019-01-21T07:14:24.351Z,924.66
2019-01-21T07:15:56.166Z,924.67
2019-01-21T07:17:27.981Z,924.67
2019-01-21T07:18:59.897Z,924.70
2019-01-21T07:20:31.616Z,924.66
2019-01-21T07:22:03.427Z,924.69
2019-01-21T07:23:35.241Z,924.69
2019-01-21T07:25:07.307Z,924.65
2019-01-21T07:26:38.872Z,924.66
2019-01-21T07:28:10.687Z,924.71
2019-01-21T07:29:42.502Z,924.74
2019-01-21T07:31:14.317Z,924.76
2019-01-21T07:32:46.136Z,924.77
2019-01-21T07:34:17.948Z,924.79
2019-01-21T07:35:49.763Z,924.74
2019-01-21T07:37:21.679Z,924.80
2019-01-21T07:38:53.394Z,924.85
2019-01-21T07:40:25.208Z,924.87
2019-01-21T07:41:57.024Z,924.90
2019-01-21T07:43:28.841Z,924.90
2019-01-21T07:45:00.655Z,924.90
2019-01-21T07:46:32.470Z,924.86
2019-01-21T07:48:05.205Z,924.90
2019-01-21T07:49:36.100Z,924.92
2019-01-21T07:51:07.917Z,924.99
2019-01-21T07:52:39.734Z,924.99
2019-01-21T07:54:11.545Z,924.96
2019-01-21T07:55:43.462Z,924.99
2019-01-21T07:57:15.178Z,924.98
2019-01-21T07:58:46.991Z,924.96
2019-01-21T08:00:18.805Z,925.00
2019-01-21T08:03:22.436Z,925.06
2019-01-21T08:04:54.257Z,925.11
2019-01-21T08:06:26.066Z,925.09
2019-01-21T08:07:57.883Z,925.11
2019-01-21T08:09:29.696Z,925.11
2019-01-21T08:11:01.511Z,925.17
2019-01-21T08:12:33.330Z,925.15
2019-01-21T08:14:05.142Z,925.19
2019-01-21T08:15:37.057Z,925.21
2019-01-21T08:17:08.772Z,925.24
2019-01-21T08:18:40.587Z,925.22
2019-01-21T08:20:12.402Z,925.21
2019-01-21T08:21:44.217Z,925.26
2019-01-21T08:23:16.032Z,925.36
2019-01-21T08:24:47.848Z,925.36
2019-01-21T08:26:19.662Z,925.40
2019-01-21T08:27:51.476Z,925.41
2019-01-21T08:29:23.291Z,925.40
2019-01-21T08:30:55.107Z,925.42
2019-01-21T08:32:26.921Z,925.45
2019-01-21T08:33:58.837Z,925.42
2019-01-21T08:35:30.551Z,925.41
2019-01-21T08:37:02.366Z,925.43
2019-01-21T08:38:34.187Z,925.45
2019-01-21T08:40:05.996Z,925.47
2019-01-21T08:41:37.812Z,925.42
2019-01-21T08:43:09.627Z,925.47
2019-01-21T08:44:41.442Z,925.42
2019-01-21T08:46:13.335Z,925.51
2019-01-21T08:47:45.121Z,925.55
2019-01-21T08:49:16.922Z,925.59
2019-01-21T08:50:48.702Z,925.61
2019-01-21T08:52:20.654Z,925.65
2019-01-21T08:53:52.358Z,925.68
2019-01-21T08:55:24.181Z,925.70
2019-01-21T08:56:55.962Z,925.77
2019-01-21T08:58:27.778Z,925.75
2019-01-21T08:59:59.624Z,925.79
2019-01-21T09:01:31.420Z,925.82
2019-01-21T09:03:03.223Z,925.81
2019-01-21T09:04:35.090Z,925.86
2019-01-21T09:06:07.090Z,925.91
2019-01-21T09:07:38.778Z,925.89
2019-01-21T09:09:10.583Z,925.90
2019-01-21T09:10:43.143Z,925.92
2019-01-21T09:12:14.427Z,925.93
2019-01-21T09:13:45.941Z,925.92
2019-01-21T09:15:17.757Z,926.00
2019-01-21T09:16:50.109Z,925.96
2019-01-21T09:18:21.393Z,925.96
2019-01-21T09:21:25.030Z,925.94
2019-01-21T09:22:57.051Z,925.96
2019-01-21T09:24:28.972Z,925.94
2019-01-21T09:26:00.514Z,926.01
2019-01-21T09:29:04.225Z,926.05
2019-01-21T09:30:35.944Z,926.03
2019-01-21T09:32:07.763Z,926.04
2019-01-21T09:33:39.583Z,926.06
2019-01-21T09:35:11.405Z,926.02
2019-01-21T09:36:43.223Z,926.04
2019-01-21T09:38:15.043Z,926.07
2019-01-21T09:39:46.863Z,926.15
2019-01-21T09:41:18.684Z,926.11
2019-01-21T09:42:50.503Z,926.18
2019-01-21T09:45:54.146Z,926.19
2019-01-21T09:47:26.065Z,926.21
2019-01-21T09:48:57.786Z,926.31
2019-01-21T09:50:30.496Z,926.29
2019-01-21T09:52:02.059Z,926.25
2019-01-21T09:53:34.318Z,926.22
2019-01-21T09:55:06.070Z,926.25
2019-01-21T09:56:37.760Z,926.26
2019-01-21T09:58:09.991Z,926.28
2019-01-21T09:59:41.213Z,926.29
2019-01-21T10:01:12.799Z,926.31
2019-01-21T10:02:45.423Z,926.34
2019-01-21T10:04:16.959Z,926.36
2019-01-21T10:05:48.339Z,926.38
2019-01-21T10:07:20.611Z,926.44
2019-01-21T10:08:52.691Z,926.43
2019-01-21T10:10:23.905Z,926.43
2019-01-21T10:11:56.586Z,926.46
2019-01-21T10:13:27.387Z,926.48
2019-01-21T10:14:59.187Z,926.49
2019-01-21T10:16:32.215Z,926.53
2019-01-21T10:18:03.796Z,926.50
2019-01-21T10:19:35.206Z,926.48
2019-01-21T10:21:07.087Z,926.50
2019-01-21T10:22:39.095Z,926.49
2019-01-21T10:24:10.875Z,926.49
2019-01-21T10:25:43.089Z,926.49
2019-01-21T10:27:14.751Z,926.46
2019-01-21T10:28:46.511Z,926.47
2019-01-21T10:30:18.853Z,926.48
2019-01-21T10:31:51.999Z,926.42
2019-01-21T10:33:22.325Z,926.42
2019-01-21T10:34:54.806Z,926.46
2019-01-21T10:36:26.749Z,926.46
2019-01-21T10:37:57.828Z,926.50
2019-01-21T10:39:29.312Z,926.48
2019-01-21T10:41:03.623Z,926.51
2019-01-21T10:42:34.751Z,926.56
2019-01-21T10:44:04.723Z,926.56
2019-01-21T10:45:37.517Z,926.60
2019-01-21T10:47:09.022Z,926.60
2019-01-21T10:48:40.228Z,926.61
2019-01-21T10:50:12.913Z,926.55
2019-01-21T10:51:44.008Z,926.59
2019-01-21T10:53:15.967Z,926.56
2019-01-21T10:54:47.718Z,926.58
2019-01-21T10:56:19.790Z,926.63
2019-01-21T10:57:51.636Z,926.56
2019-01-21T10:59:23.218Z,926.61
2019-01-21T11:00:55.269Z,926.60
2019-01-21T11:02:27.176Z,926.62
2019-01-21T11:03:58.594Z,926.68
2019-01-21T11:05:30.172Z,926.72
2019-01-21T11:07:01.995Z,926.71
2019-01-21T11:08:33.621Z,926.69
2019-01-21T11:10:05.821Z,926.76
2019-01-21T11:11:37.233Z,926.75
2019-01-21T11:13:09.434Z,926.74
2019-01-21T11:14:41.594Z,926.73
2019-01-21T11:16:14.026Z,926.78
2019-01-21T11:17:44.909Z,926.81
2019-01-21T11:19:21.956Z,926.79
2019-01-21T11:20:49.511Z,926.84
2019-01-21T11:22:20.614Z,926.85
2019-01-21T11:23:52.217Z,926.87
2019-01-21T11:25:23.745Z,926.95
2019-01-21T11:26:55.965Z,927.01
2019-01-21T11:28:29.452Z,927.00
2019-01-21T11:29:59.209Z,927.01
2019-01-21T11:31:31.747Z,927.05
2019-01-21T11:33:02.869Z,927.05
2019-01-21T11:34:34.686Z,927.02
2019-01-21T11:36:06.733Z,927.09
2019-01-21T11:37:38.852Z,927.12
2019-01-21T11:39:10.051Z,927.10
2019-01-21T11:40:42.074Z,927.10
2019-01-21T11:42:14.129Z,927.13
2019-01-21T11:43:45.970Z,927.14
2019-01-21T11:45:18.940Z,927.08
2019-01-21T11:48:21.776Z,927.12
2019-01-21T11:49:53.890Z,927.13
2019-01-21T11:51:24.765Z,927.17
2019-01-21T11:52:56.703Z,927.18
2019-01-21T11:54:28.431Z,927.23
2019-01-21T11:56:00.672Z,927.22
2019-01-21T11:57:32.254Z,927.24
2019-01-21T11:59:04.414Z,927.30
2019-01-21T12:00:36.079Z,927.30
2019-01-21T12:02:08.490Z,927.31
2019-01-21T12:03:39.513Z,927.31
2019-01-21T12:05:11.709Z,927.36
2019-01-21T12:06:43.317Z,927.36
2019-01-21T12:08:15.617Z,927.27
2019-01-21T12:09:46.879Z,927.33
2019-01-21T12:11:18.743Z,927.35
2019-01-21T12:12:50.044Z,927.27
2019-01-21T12:14:22.451Z,927.29
2019-01-21T12:15:54.087Z,927.28
2019-01-21T12:17:25.968Z,927.25
2019-01-21T12:18:57.599Z,927.32
2019-01-21T12:20:29.301Z,927.30
2019-01-21T12:22:01.248Z,927.32
2019-01-21T12:23:33.223Z,927.33
2019-01-21T12:25:05.141Z,927.27
2019-01-21T12:26:36.503Z,927.30
2019-01-21T12:28:09.196Z,927.32
2019-01-21T12:29:41.157Z,927.25
2019-01-21T12:31:13.125Z,927.34
2019-01-21T12:32:44.869Z,927.29
2019-01-21T12:34:16.436Z,927.19
2019-01-21T12:35:47.589Z,927.25
2019-01-21T12:37:20.094Z,927.22
2019-01-21T12:38:52.046Z,927.25
2019-01-21T12:40:24.128Z,927.29
2019-01-21T12:41:56.964Z,927.24
2019-01-21T12:43:28.317Z,927.28
2019-01-21T12:45:00.042Z,927.24
2019-01-21T12:46:31.626Z,927.21
2019-01-21T12:48:03.910Z,927.17
2019-01-21T12:49:33.931Z,927.27
2019-01-21T12:51:06.497Z,927.25
2019-01-21T12:52:37.635Z,927.21
2019-01-21T12:54:09.702Z,927.19
2019-01-21T12:55:41.843Z,927.26
2019-01-21T12:57:13.746Z,927.30
2019-01-21T12:58:46.084Z,927.30
2019-01-21T13:00:17.290Z,927.31
2019-01-21T13:01:48.868Z,927.26
2019-01-21T13:03:22.776Z,927.21
2019-01-21T13:04:52.733Z,927.22
2019-01-21T13:06:25.321Z,927.22
2019-01-21T13:07:56.643Z,927.21
2019-01-21T13:09:28.437Z,927.22
2019-01-21T13:11:00.500Z,927.18
2019-01-21T13:12:31.946Z,927.19
2019-01-21T13:14:03.423Z,927.23
2019-01-21T13:15:35.196Z,927.28
2019-01-21T13:17:07.238Z,927.24
2019-01-21T13:18:39.244Z,927.23
2019-01-21T13:20:11.134Z,927.30
2019-01-21T13:21:42.663Z,927.30
2019-01-21T13:23:14.660Z,927.29
2019-01-21T13:24:46.760Z,927.30
2019-01-21T13:26:18.578Z,927.32
2019-01-21T13:27:50.505Z,927.33
2019-01-21T13:29:22.245Z,927.33
2019-01-21T13:30:53.765Z,927.29
2019-01-21T13:32:25.288Z,927.36
2019-01-21T13:33:57.988Z,927.34
2019-01-21T13:35:29.265Z,927.40
2019-01-21T13:37:01.761Z,927.44
2019-01-21T13:38:33.824Z,927.33
2019-01-21T13:40:05.126Z,927.33
2019-01-21T13:41:36.552Z,927.43
2019-01-21T13:43:08.728Z,927.38
2019-01-21T13:44:40.029Z,927.31
2019-01-21T13:46:12.109Z,927.36
2019-01-21T13:47:44.275Z,927.38
2019-01-21T13:49:16.652Z,927.35
2019-01-21T13:50:48.127Z,927.22
2019-01-21T13:52:20.445Z,927.33
2019-01-21T13:53:51.181Z,927.27
2019-01-21T13:56:55.728Z,927.26
2019-01-21T13:58:26.704Z,927.33
2019-01-21T14:00:00.828Z,927.14
2019-01-21T14:01:31.825Z,927.27
2019-01-21T14:03:02.591Z,927.28
2019-01-21T14:04:34.307Z,927.29
2019-01-21T14:06:06.918Z,927.27
2019-01-21T14:07:38.864Z,927.27
2019-01-21T14:09:10.816Z,927.29
2019-01-21T14:10:42.748Z,927.32
2019-01-21T14:12:15.364Z,927.32
2019-01-21T14:15:15.728Z,927.43
2019-01-21T14:16:47.811Z,927.20
2019-01-21T14:18:19.526Z,927.29
2019-01-21T14:19:51.454Z,927.21
2019-01-21T14:21:23.055Z,927.23
2019-01-21T14:22:54.988Z,927.20
2019-01-21T14:24:26.737Z,927.12
2019-01-21T14:25:58.570Z,927.12
2019-01-21T14:27:30.759Z,927.42
2019-01-21T14:29:02.308Z,927.20
2019-01-21T14:30:34.676Z,927.16
2019-01-21T14:32:06.216Z,927.14
2019-01-21T14:33:38.732Z,927.08
2019-01-21T14:35:09.828Z,927.05
2019-01-21T14:36:41.389Z,927.19
2019-01-21T14:38:13.534Z,927.17
2019-01-21T14:39:45.082Z,927.18
2019-01-21T14:41:17.047Z,926.94
2019-01-21T14:44:20.580Z,926.88
2019-01-21T14:45:52.591Z,926.86
2019-01-21T14:47:24.631Z,926.97
2019-01-21T14:48:56.561Z,926.80
2019-01-21T14:51:59.769Z,926.98
2019-01-21T14:55:03.394Z,926.96
2019-01-21T14:56:35.549Z,926.66
2019-01-21T14:58:07.051Z,927.00
2019-01-21T14:59:38.981Z,926.91
2019-01-21T15:01:11.284Z,926.84
2019-01-21T15:02:42.781Z,927.04
2019-01-21T15:04:15.093Z,927.06
2019-01-21T15:05:46.537Z,926.89
2019-01-21T15:07:18.046Z,926.91
2019-01-21T15:08:50.183Z,926.87
2019-01-21T15:11:53.615Z,926.74
2019-01-21T15:13:25.559Z,926.86
2019-01-21T15:14:57.310Z,926.76
2019-01-21T15:16:30.978Z,926.80
2019-01-21T15:18:01.797Z,926.73
2019-01-21T15:19:33.633Z,926.75
2019-01-21T15:21:04.783Z,926.75
2019-01-21T15:22:36.386Z,926.63
2019-01-21T15:24:08.639Z,926.97
2019-01-21T15:25:40.352Z,926.88
2019-01-21T15:27:12.030Z,926.79
2019-01-21T15:28:44.017Z,926.57
2019-01-21T15:30:16.038Z,926.72
2019-01-21T15:31:48.690Z,926.99
2019-01-21T15:33:19.586Z,926.82
2019-01-21T15:34:51.906Z,926.83
2019-01-21T15:36:23.323Z,926.82
2019-01-21T15:37:55.698Z,926.76
2019-01-21T15:39:27.098Z,926.50
2019-01-21T15:40:59.031Z,926.64
2019-01-21T15:42:30.632Z,926.73
2019-01-21T15:44:02.853Z,926.62
2019-01-21T15:45:33.911Z,926.36
2019-01-21T15:47:05.978Z,926.37
2019-01-21T15:48:37.571Z,926.68
2019-01-21T15:50:10.023Z,926.50
2019-01-21T15:51:41.952Z,926.34
2019-01-21T15:53:13.012Z,926.68
2019-01-21T15:54:45.295Z,926.48
2019-01-21T15:56:17.132Z,926.50
2019-01-21T15:57:49.168Z,926.53
2019-01-21T15:59:21.402Z,926.41
2019-01-21T16:00:52.355Z,926.36
2019-01-21T16:02:27.968Z,926.37
2019-01-21T16:03:55.832Z,926.37
2019-01-21T16:05:27.707Z,926.46
2019-01-21T16:07:00.747Z,926.67
2019-01-21T16:10:03.214Z,926.63
2019-01-21T16:11:35.044Z,926.57
2019-01-21T16:13:06.832Z,926.23
2019-01-21T16:14:39.095Z,926.37
2019-01-21T16:16:11.542Z,926.28
2019-01-21T16:19:14.416Z,926.29
2019-01-21T16:20:46.729Z,926.36
2019-01-21T16:23:49.795Z,926.19
2019-01-21T16:25:23.052Z,926.28
2019-01-21T16:26:53.527Z,926.31
2019-01-21T16:28:25.255Z,926.36
2019-01-21T16:29:57.689Z,926.51
2019-01-21T16:31:29.315Z,926.55
2019-01-21T16:33:01.171Z,926.25
2019-01-21T16:36:05.566Z,926.07
2019-01-21T16:39:08.211Z,925.99
2019-01-21T16:40:42.326Z,925.67
2019-01-21T16:42:11.768Z,925.80
2019-01-21T16:43:44.691Z,926.24
2019-01-21T16:45:15.324Z,926.13
2019-01-21T16:46:47.151Z,925.57
2019-01-21T16:48:19.287Z,926.32
2019-01-21T16:51:22.681Z,925.92
2019-01-21T16:52:54.699Z,926.00
2019-01-21T16:54:26.588Z,925.91
2019-01-21T16:55:58.557Z,926.09
2019-01-21T16:57:29.999Z,926.08
2019-01-21T16:59:02.141Z,925.99
2019-01-21T17:00:34.140Z,925.99
2019-01-21T17:02:05.669Z,925.84
2019-01-21T17:03:37.537Z,925.85
2019-01-21T17:05:10.294Z,925.87
2019-01-21T17:06:42.543Z,925.92
2019-01-21T17:08:12.777Z,925.43
2019-01-21T17:09:45.693Z,925.80
2019-01-21T17:11:16.833Z,925.88
2019-01-21T17:12:48.381Z,925.79
2019-01-21T17:14:21.799Z,925.71
2019-01-21T17:15:52.058Z,925.73
2019-01-21T17:17:23.775Z,925.74
2019-01-21T17:18:55.648Z,925.56
2019-01-21T17:20:27.770Z,925.69
2019-01-21T17:21:59.853Z,925.76
2019-01-21T17:23:31.373Z,925.79
2019-01-21T17:25:03.307Z,925.44
2019-01-21T17:26:35.031Z,925.79
2019-01-21T17:28:06.721Z,925.85
2019-01-21T17:29:38.419Z,925.76
2019-01-21T17:31:10.493Z,925.80
2019-01-21T17:32:42.111Z,925.78
2019-01-21T17:34:13.909Z,925.89
2019-01-21T17:35:45.740Z,925.94
2019-01-21T17:37:17.631Z,926.12
2019-01-21T17:38:49.640Z,925.82
2019-01-21T17:40:22.008Z,925.85
2019-01-21T17:41:53.404Z,925.89
2019-01-21T17:43:24.921Z,925.87
2019-01-21T17:44:58.220Z,925.63
2019-01-21T17:46:29.513Z,925.63
2019-01-21T17:48:00.961Z,925.60
2019-01-21T17:49:32.342Z,925.36
2019-01-21T17:51:05.671Z,925.70
2019-01-21T17:52:38.047Z,925.49
2019-01-21T17:54:08.165Z,925.39
2019-01-21T17:55:40.050Z,925.22
2019-01-21T17:57:12.113Z,925.38
2019-01-21T17:58:43.377Z,925.68
2019-01-21T18:00:15.312Z,925.69
2019-01-21T18:01:47.634Z,925.34
2019-01-21T18:03:18.849Z,925.86
2019-01-21T18:04:51.337Z,925.87
2019-01-21T18:06:22.797Z,925.79
2019-01-21T18:09:26.325Z,925.98
2019-01-21T18:10:57.972Z,925.91
2019-01-21T18:12:29.893Z,925.24
2019-01-21T18:14:02.582Z,925.36
2019-01-21T18:15:34.401Z,926.08
2019-01-21T18:17:05.403Z,925.99
2019-01-21T18:18:37.081Z,926.03
2019-01-21T18:20:09.108Z,926.14
2019-01-21T18:24:44.532Z,925.94
2019-01-21T18:27:48.717Z,925.18
2019-01-21T18:29:19.960Z,925.49
2019-01-21T18:30:51.822Z,925.50
2019-01-21T18:32:23.508Z,925.45
2019-01-21T18:33:55.368Z,925.38
2019-01-21T18:35:27.430Z,925.41
2019-01-21T18:36:58.946Z,925.44
2019-01-21T18:38:31.077Z,925.75
2019-01-21T18:41:34.428Z,925.30
2019-01-21T18:43:06.557Z,925.95
2019-01-21T18:44:38.078Z,925.80
2019-01-21T18:46:09.909Z,924.85
2019-01-21T18:47:41.731Z,924.84
2019-01-21T18:49:13.559Z,924.86
2019-01-21T18:52:17.209Z,924.97
2019-01-21T18:55:20.867Z,924.93
2019-01-21T18:58:24.712Z,924.94
2019-01-21T19:03:00.303Z,924.86
2019-01-21T19:04:31.811Z,924.68
2019-01-21T19:06:03.643Z,924.61
2019-01-21T19:07:35.461Z,924.65
2019-01-21T19:09:07.286Z,924.64
2019-01-21T19:10:39.113Z,924.58
2019-01-21T19:12:10.935Z,924.50
2019-01-21T19:13:42.757Z,924.55
2019-01-21T19:15:14.587Z,924.58
2019-01-21T19:16:46.516Z,925.63
2019-01-21T19:18:18.230Z,924.71
2019-01-21T19:19:50.590Z,924.94
2019-01-21T19:21:22.185Z,924.99
2019-01-21T19:22:53.906Z,924.97
2019-01-21T19:24:25.832Z,924.73
2019-01-21T19:27:29.380Z,924.51
2019-01-21T19:29:01.001Z,925.16
2019-01-21T19:30:33.028Z,924.57
2019-01-21T19:33:36.474Z,925.36
2019-01-21T19:36:40.425Z,925.50
2019-01-21T19:38:12.254Z,924.66
2019-01-21T19:39:43.772Z,924.73
2019-01-21T19:41:15.901Z,924.66
2019-01-21T19:42:47.419Z,924.61
2019-01-21T19:44:19.245Z,924.62
2019-01-21T19:45:51.072Z,924.53
2019-01-21T19:47:22.894Z,924.56
2019-01-21T19:48:54.922Z,924.54
2019-01-21T19:50:26.542Z,924.63
2019-01-21T19:52:00.381Z,924.63
2019-01-21T19:53:30.191Z,924.75
2019-01-21T19:55:02.317Z,924.89